createdAt,value
2022-09-30T00:03:36.352Z,937
2022-09-30T00:09:05.875Z,929
2022-09-30T00:14:36.278Z,941
2022-09-30T00:20:05.959Z,935
2022-09-30T00:25:36.407Z,937
2022-09-30T00:31:06.901Z,941
2022-09-30T00:36:36.396Z,943
2022-09-30T00:42:06.862Z,933
2022-09-30T00:47:37.326Z,939
2022-09-30T00:53:06.849Z,935
2022-09-30T00:58:37.304Z,936
2022-09-30T01:04:07.786Z,939
2022-09-30T01:09:37.437Z,939
2022-09-30T01:15:07.756Z,939
2022-09-30T01:20:37.390Z,944
2022-09-30T01:26:07.905Z,936
2022-09-30T01:31:38.394Z,940
2022-09-30T01:37:07.815Z,939
2022-09-30T01:42:38.336Z,940
2022-09-30T01:48:08.780Z,938
2022-09-30T01:53:38.291Z,934
2022-09-30T01:59:08.794Z,933
2022-09-30T02:04:39.255Z,935
2022-09-30T02:10:08.735Z,937
2022-09-30T02:15:40.681Z,931
2022-09-30T02:21:09.703Z,932
2022-09-30T02:26:39.178Z,935
2022-09-30T02:32:09.684Z,935
2022-09-30T02:37:40.153Z,938
2022-09-30T02:43:09.644Z,933
2022-09-30T02:48:40.165Z,932
2022-09-30T02:54:09.632Z,932
2022-09-30T02:59:40.104Z,935
2022-09-30T03:05:10.624Z,934
2022-09-30T03:10:40.091Z,932
2022-09-30T03:16:13.698Z,935
2022-09-30T03:21:40.121Z,934
2022-09-30T03:27:10.527Z,937
2022-09-30T03:32:40.061Z,935
2022-09-30T03:38:10.622Z,941
2022-09-30T03:43:40.997Z,937
2022-09-30T03:49:11.447Z,941
2022-09-30T03:54:40.972Z,938
2022-09-30T04:00:11.530Z,941
2022-09-30T04:05:41.013Z,939
2022-09-30T04:11:11.549Z,935
2022-09-30T04:16:42.119Z,938
2022-09-30T04:22:11.497Z,938
2022-09-30T04:27:41.991Z,959
2022-09-30T04:33:12.444Z,992
2022-09-30T04:38:41.970Z,1042
2022-09-30T04:44:12.452Z,1056
2022-09-30T04:49:42.907Z,1041
2022-09-30T04:55:12.405Z,1033
2022-09-30T05:00:43.101Z,1026
2022-09-30T05:06:13.478Z,1021
2022-09-30T05:11:43.965Z,1014
2022-09-30T05:17:14.611Z,1007
2022-09-30T05:22:43.931Z,1001
2022-09-30T05:28:14.450Z,994
2022-09-30T05:33:43.962Z,990
2022-09-30T05:39:14.534Z,986
2022-09-30T05:44:44.893Z,985
2022-09-30T05:50:14.424Z,973
2022-09-30T05:55:44.865Z,962
2022-09-30T06:01:15.358Z,946
2022-09-30T06:06:45.056Z,933
2022-09-30T06:12:15.315Z,920
2022-09-30T06:17:45.871Z,918
2022-09-30T06:23:15.280Z,906
2022-09-30T06:28:45.739Z,893
2022-09-30T06:34:15.239Z,883
2022-09-30T06:39:45.747Z,881
2022-09-30T06:45:28.620Z,876
2022-09-30T06:50:56.856Z,866
2022-09-30T06:56:16.198Z,858
2022-09-30T07:01:45.757Z,851
2022-09-30T07:07:16.144Z,842
2022-09-30T07:12:46.647Z,837
2022-09-30T07:18:16.115Z,834
2022-09-30T07:23:46.607Z,824
2022-09-30T07:29:17.101Z,810
2022-09-30T07:34:46.563Z,796
2022-09-30T07:40:17.027Z,795
2022-09-30T07:45:47.662Z,790
2022-09-30T07:51:17.003Z,787
2022-09-30T08:02:18.101Z,767
2022-09-30T08:07:47.460Z,766
2022-09-30T08:13:17.924Z,764
2022-09-30T08:18:48.446Z,755
2022-09-30T08:24:17.969Z,756
2022-09-30T08:29:58.268Z,745
2022-09-30T08:35:18.924Z,743
2022-09-30T08:40:48.357Z,732
2022-09-30T08:46:18.923Z,733
2022-09-30T08:51:49.355Z,728
2022-09-30T08:57:18.785Z,717
2022-09-30T09:02:49.359Z,716
2022-09-30T09:08:18.800Z,706
2022-09-30T09:13:49.239Z,704
2022-09-30T09:19:19.727Z,703
2022-09-30T09:24:49.200Z,703
2022-09-30T09:30:19.765Z,705
2022-09-30T09:35:50.147Z,705
2022-09-30T09:41:19.632Z,705
2022-09-30T09:46:50.093Z,700
2022-09-30T09:52:19.727Z,692
2022-09-30T09:57:50.754Z,692
2022-09-30T10:03:20.696Z,689
2022-09-30T10:08:50.195Z,684
2022-09-30T10:14:20.756Z,683
2022-09-30T10:19:51.153Z,674
2022-09-30T10:25:20.619Z,678
2022-09-30T10:30:51.117Z,682
2022-09-30T10:36:21.545Z,677
2022-09-30T10:41:52.038Z,673
2022-09-30T10:47:21.549Z,669
2022-09-30T10:52:51.984Z,666
2022-09-30T10:58:21.498Z,670
2022-09-30T11:03:52.092Z,665
2022-09-30T11:09:22.439Z,665
2022-09-30T11:14:51.937Z,650
2022-09-30T11:20:22.440Z,655
2022-09-30T11:25:52.886Z,656
2022-09-30T11:31:22.429Z,650
2022-09-30T11:36:52.891Z,645
2022-09-30T11:42:23.344Z,635
2022-09-30T11:47:52.840Z,635
2022-09-30T11:53:23.328Z,632
2022-09-30T11:58:53.809Z,635
2022-09-30T12:04:23.279Z,638
2022-09-30T12:09:53.758Z,630
2022-09-30T12:15:24.214Z,618
2022-09-30T12:20:54.731Z,625
2022-09-30T12:26:24.332Z,600
2022-09-30T12:31:54.926Z,592
2022-09-30T12:37:25.141Z,526
2022-09-30T12:42:54.706Z,511
2022-09-30T12:48:25.103Z,500
2022-09-30T12:53:55.588Z,512
2022-09-30T12:59:25.103Z,514
2022-09-30T13:04:55.557Z,526
2022-09-30T13:10:26.024Z,546
2022-09-30T13:15:55.529Z,536
2022-09-30T13:21:26.054Z,524
2022-09-30T13:26:56.480Z,520
2022-09-30T13:32:25.998Z,526
2022-09-30T13:37:56.433Z,513
2022-09-30T13:43:26.935Z,517
2022-09-30T13:48:56.449Z,516
2022-09-30T13:54:26.915Z,495
2022-09-30T13:59:57.406Z,498
2022-09-30T14:05:27.016Z,501
2022-09-30T14:10:57.318Z,504
2022-09-30T14:16:27.802Z,527
2022-09-30T14:21:57.327Z,540
2022-09-30T14:27:26.798Z,573
2022-09-30T14:32:57.281Z,565
2022-09-30T14:38:27.800Z,558
2022-09-30T14:43:57.279Z,607
2022-09-30T14:49:27.746Z,579
2022-09-30T14:54:58.241Z,549
2022-09-30T15:00:27.703Z,536
2022-09-30T15:05:58.219Z,606
2022-09-30T15:11:28.702Z,649
2022-09-30T15:17:03.764Z,819
2022-09-30T15:22:29.741Z,803
2022-09-30T15:27:59.335Z,944
2022-09-30T15:33:29.724Z,867
2022-09-30T15:39:00.208Z,938
2022-09-30T15:44:30.707Z,884
2022-09-30T15:50:00.180Z,839
2022-09-30T15:55:30.645Z,822
2022-09-30T16:01:01.185Z,928
2022-09-30T16:06:31.081Z,907
2022-09-30T16:12:01.172Z,852
2022-09-30T16:17:30.700Z,847
2022-09-30T16:23:01.171Z,829
2022-09-30T16:28:31.709Z,901
2022-09-30T16:34:02.186Z,966
2022-09-30T16:39:31.628Z,1013
2022-09-30T16:45:02.109Z,858
2022-09-30T16:50:31.612Z,785
2022-09-30T16:56:02.099Z,743
2022-09-30T17:01:32.544Z,703
2022-09-30T17:07:02.047Z,683
2022-09-30T17:12:32.490Z,681
2022-09-30T17:18:02.995Z,578
2022-09-30T17:23:32.502Z,689
2022-09-30T17:29:21.155Z,732
2022-09-30T17:34:33.425Z,757
2022-09-30T17:40:02.954Z,801
2022-09-30T17:45:33.456Z,832
2022-09-30T17:51:03.870Z,849
2022-09-30T17:56:34.366Z,874
2022-09-30T18:02:03.872Z,895
2022-09-30T18:07:34.300Z,904
2022-09-30T18:13:03.835Z,919
2022-09-30T18:18:34.269Z,948
2022-09-30T18:24:03.749Z,973
2022-09-30T18:29:34.258Z,983
2022-09-30T18:35:04.712Z,988
2022-09-30T18:40:35.165Z,968
2022-09-30T18:46:04.917Z,965
2022-09-30T18:51:35.748Z,944
2022-09-30T18:57:05.639Z,909
2022-09-30T19:02:35.175Z,899
2022-09-30T19:08:05.590Z,892
2022-09-30T19:13:36.083Z,891
2022-09-30T19:19:06.587Z,889
2022-09-30T19:24:36.053Z,888
2022-09-30T19:30:06.518Z,891
2022-09-30T19:35:40.839Z,890
2022-09-30T19:41:06.485Z,885
2022-09-30T19:46:36.975Z,889
2022-09-30T19:52:18.302Z,895
2022-09-30T19:57:36.963Z,894
2022-09-30T20:03:07.409Z,894
2022-09-30T20:08:37.920Z,902
2022-09-30T20:14:07.390Z,892
2022-09-30T20:19:37.854Z,900
2022-09-30T20:25:08.376Z,891
2022-09-30T20:30:37.847Z,893
2022-09-30T20:36:08.321Z,897
2022-09-30T20:41:38.857Z,898
2022-09-30T20:47:08.280Z,895
2022-09-30T20:52:38.755Z,893
2022-09-30T20:58:09.255Z,903
2022-09-30T21:03:38.813Z,897
2022-09-30T21:09:09.175Z,898
2022-09-30T21:14:38.804Z,899
2022-09-30T21:20:09.149Z,897
2022-09-30T21:25:39.627Z,894
2022-09-30T21:31:09.148Z,898
2022-09-30T21:36:39.583Z,899
2022-09-30T21:42:10.057Z,906
2022-09-30T21:47:39.574Z,905
2022-09-30T21:53:09.041Z,911
2022-09-30T21:58:39.538Z,914
2022-09-30T22:04:10.089Z,911
2022-09-30T22:09:39.831Z,911
2022-09-30T22:15:09.978Z,911
2022-09-30T22:20:40.554Z,915
2022-09-30T22:26:09.965Z,920
2022-09-30T22:31:40.495Z,926
2022-09-30T22:37:09.954Z,929
2022-09-30T22:42:40.380Z,926
2022-09-30T22:48:10.864Z,922
2022-09-30T22:53:40.517Z,927
2022-09-30T22:59:10.979Z,930
2022-09-30T23:04:41.467Z,931
2022-09-30T23:10:10.984Z,937
2022-09-30T23:15:41.413Z,940
2022-09-30T23:21:11.923Z,936
2022-09-30T23:26:41.401Z,941
2022-09-30T23:32:11.973Z,942
2022-09-30T23:37:41.366Z,944
2022-09-30T23:43:11.893Z,943
2022-09-30T23:48:42.343Z,943
2022-09-30T23:54:12.821Z,941
2022-09-30T23:59:42.323Z,933
